Time;durP1;ratioP1;P1;durP2;ratioP2;P2;SDS_P1;SDS_P2;PMS_P1;PMS_P2;Temp;Humidity;BMP_temperature;BMP_pressure;BME280_temperature;BME280_humidity;BME280_pressure;Samples;Min_cycle;Max_cycle;Signal;HPM_P1;HPM_P2
2024/04/17 00:00:19;;;;;;;27.38;14.48;;;16.80;99.90;;;;;;5408513;26;20007;-86
2024/04/17 00:02:46;;;;;;;38.20;14.68;;;16.80;99.90;;;;;;5386347;26;20014;-85
2024/04/17 00:05:12;;;;;;;29.20;14.75;;;16.80;99.90;;;;;;5387801;26;20014;-85
2024/04/17 00:07:38;;;;;;;25.67;15.23;;;16.80;99.90;;;;;;5421092;26;20455;-85
2024/04/17 00:10:05;;;;;;;30.80;15.60;;;16.80;99.90;;;;;;5389534;26;20440;-86
2024/04/17 00:12:32;;;;;;;32.30;14.70;;;16.80;99.90;;;;;;5366090;26;20004;-85
2024/04/17 00:14:58;;;;;;;29.95;14.80;;;16.80;99.90;;;;;;5348698;26;20051;-86
2024/04/17 00:17:28;;;;;;;29.23;14.98;;;16.80;99.90;;;;;;5350157;26;20001;-86
2024/04/17 00:19:54;;;;;;;28.90;14.60;;;16.80;99.90;;;;;;5398003;26;20004;-86
2024/04/17 00:22:21;;;;;;;25.45;14.95;;;16.70;99.90;;;;;;5374241;26;20005;-86
2024/04/17 00:24:47;;;;;;;29.42;14.65;;;16.70;99.90;;;;;;5348632;26;20048;-86
2024/04/17 00:27:14;;;;;;;30.35;14.93;;;16.70;99.90;;;;;;5319688;26;20016;-86
2024/04/17 00:29:40;;;;;;;28.92;15.38;;;16.70;99.90;;;;;;5348364;26;20004;-86
2024/04/17 00:32:07;;;;;;;35.50;14.55;;;16.60;99.90;;;;;;5348713;26;20009;-86
2024/04/17 00:34:34;;;;;;;25.88;14.98;;;16.60;99.90;;;;;;5329201;26;20020;-85
2024/04/17 00:37:01;;;;;;;26.55;14.73;;;16.60;99.90;;;;;;5348319;26;20020;-85
2024/04/17 00:39:27;;;;;;;30.25;14.18;;;16.60;99.90;;;;;;5374456;26;20019;-85
2024/04/17 00:41:54;;;;;;;25.38;15.07;;;16.60;99.90;;;;;;5319851;26;20013;-86
2024/04/17 00:44:21;;;;;;;27.80;14.38;;;16.60;99.90;;;;;;5319410;26;20329;-86
2024/04/17 00:46:48;;;;;;;32.78;15.25;;;16.50;99.90;;;;;;5348228;26;20000;-86
2024/04/17 00:49:15;;;;;;;23.98;14.40;;;16.50;99.90;;;;;;5372441;26;20011;-86
2024/04/17 00:51:42;;;;;;;27.25;14.93;;;16.50;99.90;;;;;;5348071;26;20005;-87
2024/04/17 00:54:09;;;;;;;31.17;16.10;;;16.40;99.90;;;;;;5322202;26;20000;-86
2024/04/17 00:56:36;;;;;;;35.45;15.82;;;16.40;99.90;;;;;;5388201;26;20031;-86
2024/04/17 00:59:02;;;;;;;28.95;15.60;;;16.40;99.90;;;;;;5388797;26;20011;-86
2024/04/17 01:01:29;;;;;;;24.23;15.88;;;16.40;99.90;;;;;;5351295;26;20450;-86
2024/04/17 01:03:55;;;;;;;26.58;14.52;;;16.40;99.90;;;;;;5347951;26;20005;-85
2024/04/17 01:06:22;;;;;;;23.60;13.55;;;16.40;99.90;;;;;;5352251;26;20475;-85
2024/04/17 01:08:48;;;;;;;23.85;13.60;;;16.40;99.90;;;;;;5334082;26;20011;-85
2024/04/17 01:11:15;;;;;;;26.60;13.57;;;16.30;99.90;;;;;;5388743;26;20003;-85
2024/04/17 01:13:41;;;;;;;27.10;14.20;;;16.30;99.90;;;;;;5388668;26;20003;-86
2024/04/17 01:16:07;;;;;;;20.98;13.32;;;16.30;99.90;;;;;;5381985;26;20015;-86
2024/04/17 01:18:34;;;;;;;30.30;14.07;;;16.20;99.90;;;;;;5386336;26;20001;-86
2024/04/17 01:21:04;;;;;;;19.60;12.88;;;16.20;99.90;;;;;;5419691;26;20449;-86
2024/04/17 01:23:30;;;;;;;19.17;12.93;;;16.20;99.90;;;;;;5420117;26;20035;-85
2024/04/17 01:25:57;;;;;;;22.77;12.32;;;16.10;99.90;;;;;;5415912;26;20015;-86
2024/04/17 01:28:23;;;;;;;20.30;13.15;;;16.10;99.90;;;;;;5356688;26;20001;-85
2024/04/17 01:30:49;;;;;;;32.55;12.75;;;16.10;99.90;;;;;;5419981;26;20003;-86
2024/04/17 01:33:17;;;;;;;25.33;12.55;;;16.10;99.90;;;;;;5388740;26;20433;-86
2024/04/17 01:35:43;;;;;;;21.88;12.32;;;16.10;99.90;;;;;;5418338;26;20010;-86
2024/04/17 01:38:09;;;;;;;26.80;12.25;;;16.10;99.90;;;;;;5378317;26;20045;-86
2024/04/17 01:40:39;;;;;;;22.10;12.45;;;16.20;99.90;;;;;;5413029;26;20000;-85
2024/04/17 01:43:05;;;;;;;16.95;12.38;;;16.20;99.90;;;;;;5418149;26;20014;-86
2024/04/17 01:45:32;;;;;;;27.77;12.38;;;16.20;99.90;;;;;;5419741;26;20007;-86
2024/04/17 01:47:58;;;;;;;22.08;12.02;;;16.20;99.90;;;;;;5387272;26;20008;-86
2024/04/17 01:50:29;;;;;;;19.25;11.48;;;16.20;99.90;;;;;;5384010;26;20012;-84
2024/04/17 01:52:55;;;;;;;23.27;12.23;;;16.30;99.90;;;;;;5382591;26;20055;-86
2024/04/17 01:55:21;;;;;;;25.27;11.38;;;16.30;99.90;;;;;;5384090;26;20472;-86
2024/04/17 01:57:48;;;;;;;21.42;11.57;;;16.30;99.90;;;;;;5357018;26;20009;-85
2024/04/17 02:00:15;;;;;;;22.27;11.60;;;16.30;99.90;;;;;;5347294;26;20012;-86
2024/04/17 02:02:44;;;;;;;21.58;11.18;;;16.30;99.90;;;;;;5347389;26;20056;-86
2024/04/17 02:05:10;;;;;;;23.50;11.93;;;16.30;99.90;;;;;;5347431;26;20001;-85
2024/04/17 02:07:40;;;;;;;20.50;11.07;;;16.30;99.90;;;;;;5349282;26;20004;-86
2024/04/17 02:10:06;;;;;;;24.65;11.60;;;16.30;99.90;;;;;;5347036;26;20005;-85
2024/04/17 02:12:33;;;;;;;24.55;11.32;;;16.30;99.90;;;;;;5318434;26;20454;-85
2024/04/17 02:14:59;;;;;;;24.15;11.30;;;16.30;99.90;;;;;;5347158;26;20011;-86
2024/04/17 02:17:26;;;;;;;18.13;11.43;;;16.20;99.90;;;;;;5360195;26;20074;-85
2024/04/17 02:19:52;;;;;;;24.33;11.52;;;16.30;99.90;;;;;;5350039;26;20001;-86
2024/04/17 02:22:19;;;;;;;24.80;11.20;;;16.30;99.90;;;;;;5346739;26;20013;-85
2024/04/17 02:24:45;;;;;;;24.20;11.80;;;16.20;99.90;;;;;;5318392;26;20004;-86
2024/04/17 02:27:11;;;;;;;26.00;11.15;;;16.30;99.90;;;;;;5352319;26;20000;-85
2024/04/17 02:29:41;;;;;;;32.60;11.50;;;16.20;99.90;;;;;;5369108;26;20072;-85
2024/04/17 02:32:08;;;;;;;17.15;11.63;;;16.20;99.90;;;;;;5362362;26;20045;-86
2024/04/17 02:34:34;;;;;;;31.65;11.55;;;16.20;99.90;;;;;;5346813;26;20001;-86
2024/04/17 02:37:01;;;;;;;31.23;11.18;;;16.20;99.90;;;;;;5349744;26;20027;-85
2024/04/17 02:39:27;;;;;;;18.95;11.55;;;16.20;99.90;;;;;;5366939;26;20018;-85
2024/04/17 02:41:53;;;;;;;27.30;10.93;;;16.20;99.90;;;;;;5355989;26;20015;-86
2024/04/17 02:44:20;;;;;;;29.92;11.50;;;16.10;99.90;;;;;;5346509;26;20004;-86
2024/04/17 02:46:47;;;;;;;27.25;11.23;;;16.20;99.90;;;;;;5364256;26;20011;-84
2024/04/17 02:49:14;;;;;;;20.33;10.95;;;16.10;99.90;;;;;;5380347;26;20000;-85
2024/04/17 02:51:40;;;;;;;25.30;10.98;;;16.20;99.90;;;;;;5352213;26;20018;-85
2024/04/17 02:54:06;;;;;;;33.58;11.55;;;16.20;99.90;;;;;;5395917;26;19999;-85
2024/04/17 02:56:32;;;;;;;19.67;10.57;;;16.20;99.90;;;;;;5417039;26;20053;-86
2024/04/17 02:58:59;;;;;;;24.15;11.48;;;16.20;99.90;;;;;;5393122;26;20015;-85
2024/04/17 03:01:25;;;;;;;34.53;11.57;;;16.20;99.90;;;;;;5416940;26;20015;-85
2024/04/17 03:03:54;;;;;;;35.55;12.27;;;16.30;99.90;;;;;;5418313;26;20076;-86
2024/04/17 03:06:21;;;;;;;25.00;11.55;;;16.30;99.90;;;;;;5416866;26;20081;-85
2024/04/17 03:08:47;;;;;;;25.23;11.35;;;16.30;99.90;;;;;;5389630;26;20004;-85
2024/04/17 03:11:13;;;;;;;30.00;12.02;;;16.30;99.90;;;;;;5381033;26;20004;-84
2024/04/17 03:13:39;;;;;;;20.45;10.93;;;16.40;99.90;;;;;;5381269;26;20045;-85
2024/04/17 03:16:06;;;;;;;31.55;11.43;;;16.40;99.90;;;;;;5386987;26;20281;-85
2024/04/17 03:18:32;;;;;;;29.63;11.90;;;16.40;99.90;;;;;;5364006;26;20454;-84
2024/04/17 03:21:00;;;;;;;36.70;12.60;;;16.40;99.90;;;;;;5316728;26;20001;-84
2024/04/17 03:23:27;;;;;;;28.92;11.27;;;16.40;99.90;;;;;;5317750;26;20437;-85
2024/04/17 03:25:59;;;;;;;26.85;11.90;;;16.40;99.90;;;;;;5346750;26;20001;-87
2024/04/17 03:28:27;;;;;;;33.65;12.73;;;16.40;99.90;;;;;;5347253;26;20001;-88
2024/04/17 03:30:53;;;;;;;32.45;11.70;;;16.50;99.90;;;;;;5317842;26;20001;-87
2024/04/17 03:33:20;;;;;;;27.52;12.20;;;16.40;99.90;;;;;;5317881;26;20009;-87
2024/04/17 03:35:54;;;;;;;30.23;11.10;;;16.50;99.90;;;;;;5317755;26;20012;-86
2024/04/17 03:38:21;;;;;;;27.30;11.93;;;16.50;99.90;;;;;;5363696;26;20004;-87
2024/04/17 03:40:47;;;;;;;34.85;12.50;;;16.50;99.90;;;;;;5380315;26;20000;-88
2024/04/17 03:43:14;;;;;;;29.25;11.15;;;16.60;99.90;;;;;;5351532;26;20004;-86
2024/04/17 03:45:40;;;;;;;31.23;11.60;;;16.60;99.90;;;;;;5385145;26;20013;-84
2024/04/17 03:48:07;;;;;;;35.45;11.27;;;16.60;99.90;;;;;;5389939;26;20106;-85
2024/04/17 03:50:33;;;;;;;21.63;10.68;;;16.60;99.90;;;;;;5403631;26;20008;-83
2024/04/17 03:53:00;;;;;;;26.77;11.55;;;16.60;99.90;;;;;;5415326;26;20139;-84
2024/04/17 03:55:29;;;;;;;42.85;11.55;;;16.60;99.90;;;;;;5386178;26;20049;-86
2024/04/17 03:57:57;;;;;;;37.63;12.18;;;16.60;99.90;;;;;;5403973;26;20004;-86
2024/04/17 04:00:23;;;;;;;31.70;11.35;;;16.60;99.90;;;;;;5351642;26;20004;-83
2024/04/17 04:02:49;;;;;;;33.65;10.85;;;16.70;99.90;;;;;;5380472;26;20074;-85
2024/04/17 04:05:16;;;;;;;31.27;11.85;;;16.70;99.90;;;;;;5351284;26;20000;-85
2024/04/17 04:07:42;;;;;;;34.45;11.10;;;16.60;99.90;;;;;;5345386;26;20047;-84
2024/04/17 04:10:09;;;;;;;25.38;11.05;;;16.60;99.90;;;;;;5389392;26;20015;-85
2024/04/17 04:12:35;;;;;;;35.58;11.60;;;16.60;99.90;;;;;;5386208;26;19996;-86
2024/04/17 04:15:01;;;;;;;34.72;12.45;;;16.60;99.90;;;;;;5416002;26;20010;-85
2024/04/17 04:17:28;;;;;;;31.45;11.32;;;16.70;99.90;;;;;;5413222;26;20011;-85
2024/04/17 04:19:54;;;;;;;24.95;11.52;;;16.70;99.90;;;;;;5369467;26;20000;-84
2024/04/17 04:22:20;;;;;;;27.92;11.10;;;16.70;99.90;;;;;;5385751;26;20046;-84
2024/04/17 04:24:50;;;;;;;38.92;12.07;;;16.70;99.90;;;;;;5415125;26;20018;-85
2024/04/17 04:27:16;;;;;;;26.83;11.98;;;16.70;99.90;;;;;;5385870;26;20799;-86
2024/04/17 04:29:43;;;;;;;26.77;11.38;;;16.80;99.90;;;;;;5345964;26;20020;-85
2024/04/17 04:32:09;;;;;;;39.50;12.13;;;16.80;99.90;;;;;;5333839;26;20162;-85
2024/04/17 04:34:36;;;;;;;26.88;11.73;;;16.80;99.90;;;;;;5379913;26;20019;-85
2024/04/17 04:37:02;;;;;;;34.45;12.00;;;16.80;99.90;;;;;;5379478;26;20319;-86
2024/04/17 04:39:29;;;;;;;37.58;11.90;;;16.80;99.90;;;;;;5351854;26;20454;-86
2024/04/17 04:41:55;;;;;;;33.90;11.88;;;16.80;99.90;;;;;;5316071;26;20001;-86
2024/04/17 04:44:21;;;;;;;26.63;11.68;;;16.80;99.90;;;;;;5384595;26;20001;-86
2024/04/17 04:46:51;;;;;;;28.70;11.90;;;16.80;99.90;;;;;;5392398;26;20000;-86
2024/04/17 04:49:19;;;;;;;32.70;12.07;;;16.80;99.90;;;;;;5385505;26;20023;-85
2024/04/17 04:51:47;;;;;;;32.15;12.13;;;16.90;99.90;;;;;;5417325;26;19995;-85
2024/04/17 04:54:13;;;;;;;27.55;11.55;;;16.90;99.90;;;;;;5413525;26;20457;-86
2024/04/17 04:56:50;;;;;;;32.70;12.07;;;16.90;99.90;;;;;;5319214;26;20005;-85
2024/04/17 04:59:17;;;;;;;31.48;12.00;;;17.00;99.90;;;;;;5348556;26;20036;-86
2024/04/17 05:01:43;;;;;;;31.80;12.38;;;17.10;99.90;;;;;;5319808;26;19996;-85
2024/04/17 05:04:10;;;;;;;34.35;11.73;;;17.10;99.90;;;;;;5350712;26;20070;-86
2024/04/17 05:06:40;;;;;;;30.90;12.20;;;17.10;99.90;;;;;;5384737;26;20000;-86
2024/04/17 05:09:09;;;;;;;31.20;11.65;;;17.00;99.90;;;;;;5384794;26;20461;-86
2024/04/17 05:11:36;;;;;;;33.97;11.45;;;17.10;99.90;;;;;;5349698;26;20000;-87
2024/04/17 05:14:02;;;;;;;28.15;11.82;;;17.10;99.90;;;;;;5318811;26;20471;-86
2024/04/17 05:16:28;;;;;;;45.10;12.80;;;17.10;99.90;;;;;;5349553;26;20001;-85
2024/04/17 05:18:54;;;;;;;30.70;11.18;;;17.30;99.90;;;;;;5337799;26;20443;-86
2024/04/17 05:21:21;;;;;;;26.42;11.25;;;17.30;99.90;;;;;;5347254;26;20012;-86
2024/04/17 05:23:50;;;;;;;26.10;11.90;;;17.30;99.90;;;;;;5318994;26;20005;-86
2024/04/17 05:26:17;;;;;;;30.55;11.90;;;17.30;99.90;;;;;;5347745;26;20016;-85
2024/04/17 05:28:43;;;;;;;30.77;11.70;;;17.30;99.90;;;;;;5318642;26;20451;-85
2024/04/17 05:31:09;;;;;;;28.25;11.77;;;17.30;99.90;;;;;;5347150;26;20012;-85
2024/04/17 05:33:36;;;;;;;27.27;12.63;;;17.40;99.90;;;;;;5349285;26;20012;-85
2024/04/17 05:36:02;;;;;;;26.33;12.15;;;17.40;99.90;;;;;;5318672;26;20015;-86
2024/04/17 05:38:29;;;;;;;22.88;11.35;;;17.40;99.90;;;;;;5338725;26;20051;-85
2024/04/17 05:40:56;;;;;;;26.17;12.00;;;17.40;99.90;;;;;;5414986;26;20015;-85
2024/04/17 05:43:22;;;;;;;26.40;11.77;;;17.30;99.90;;;;;;5417634;26;20049;-86
2024/04/17 05:45:49;;;;;;;27.23;11.60;;;17.40;99.90;;;;;;5353096;26;20543;-88
2024/04/17 05:48:16;;;;;;;28.02;11.88;;;17.30;99.90;;;;;;5385680;26;20004;-89
2024/04/17 05:50:43;;;;;;;30.15;12.48;;;17.30;99.90;;;;;;5354534;26;20000;-88
2024/04/17 05:53:10;;;;;;;25.50;12.60;;;17.30;99.90;;;;;;5348959;26;20021;-90
2024/04/17 05:55:39;;;;;;;22.17;12.18;;;17.30;99.90;;;;;;5348421;26;20034;-89
2024/04/17 05:58:06;;;;;;;33.42;12.57;;;17.30;99.90;;;;;;5319600;26;20082;-89
2024/04/17 06:00:34;;;;;;;23.58;11.70;;;17.30;99.90;;;;;;5397761;26;20449;-89
2024/04/17 06:03:01;;;;;;;26.00;12.73;;;17.30;99.90;;;;;;5417500;26;20003;-89
2024/04/17 06:05:28;;;;;;;28.77;12.70;;;17.40;99.90;;;;;;5420053;26;19999;-88
2024/04/17 06:07:54;;;;;;;28.60;12.77;;;17.40;99.90;;;;;;5418575;26;20477;-86
2024/04/17 06:10:24;;;;;;;34.78;12.95;;;17.40;99.90;;;;;;5388545;26;20076;-89
2024/04/17 06:12:50;;;;;;;24.40;11.80;;;17.60;99.90;;;;;;5388335;26;20053;-87
2024/04/17 06:15:17;;;;;;;22.45;12.13;;;17.70;99.90;;;;;;5388934;26;20011;-87
2024/04/17 06:17:46;;;;;;;25.52;12.48;;;18.00;99.90;;;;;;5389076;26;20004;-88
2024/04/17 06:20:13;;;;;;;23.88;12.50;;;18.40;99.90;;;;;;5369421;26;20048;-89
2024/04/17 06:22:43;;;;;;;20.23;12.93;;;18.70;99.90;;;;;;5354305;26;20004;-88
2024/04/17 06:25:09;;;;;;;34.65;14.88;;;18.90;99.90;;;;;;5353654;26;20005;-86
2024/04/17 06:27:36;;;;;;;26.35;16.33;;;19.20;99.90;;;;;;5350875;26;20019;-87
2024/04/17 06:30:02;;;;;;;23.77;15.88;;;19.20;99.90;;;;;;5353323;26;20430;-87
2024/04/17 06:32:29;;;;;;;29.05;17.10;;;19.30;99.90;;;;;;5381843;26;20040;-83
2024/04/17 06:34:55;;;;;;;27.80;16.83;;;19.20;99.90;;;;;;5376372;26;20370;-83
2024/04/17 06:37:22;;;;;;;21.65;17.17;;;19.00;99.90;;;;;;5346116;26;20004;-83
2024/04/17 06:39:48;;;;;;;27.02;16.92;;;19.00;99.90;;;;;;5345985;26;20033;-83
2024/04/17 06:42:15;;;;;;;24.25;18.13;;;18.90;99.90;;;;;;5367454;26;20010;-83
2024/04/17 06:44:42;;;;;;;28.52;18.27;;;18.80;99.90;;;;;;5381682;26;20048;-83
2024/04/17 06:47:08;;;;;;;25.35;17.08;;;18.80;99.90;;;;;;5347960;26;20001;-83
2024/04/17 06:49:35;;;;;;;24.00;16.88;;;18.80;99.90;;;;;;5366420;26;20073;-82
2024/04/17 06:52:05;;;;;;;25.73;17.73;;;18.80;99.90;;;;;;5386884;26;20003;-84
2024/04/17 06:54:34;;;;;;;26.52;16.77;;;18.80;99.90;;;;;;5379613;26;20000;-87
2024/04/17 06:57:01;;;;;;;25.70;16.88;;;18.80;99.90;;;;;;5366667;26;20000;-85
2024/04/17 06:59:27;;;;;;;27.95;16.60;;;18.80;99.90;;;;;;5353351;26;20481;-84
2024/04/17 07:01:54;;;;;;;26.85;16.77;;;18.90;99.90;;;;;;5380997;26;20000;-85
2024/04/17 07:04:23;;;;;;;18.95;16.40;;;19.00;99.90;;;;;;5345809;26;20516;-84
2024/04/17 07:06:50;;;;;;;26.27;17.25;;;19.30;99.90;;;;;;5345770;26;20012;-84
2024/04/17 07:09:16;;;;;;;21.23;18.00;;;19.20;99.90;;;;;;5375245;26;20005;-85
2024/04/17 07:11:43;;;;;;;26.40;18.20;;;19.20;99.90;;;;;;5317773;26;20442;-87
2024/04/17 07:14:10;;;;;;;27.48;18.90;;;19.30;99.90;;;;;;5348371;26;20005;-87
2024/04/17 07:16:38;;;;;;;23.23;18.95;;;19.30;99.90;;;;;;5318049;26;20335;-87
2024/04/17 07:19:05;;;;;;;21.15;18.85;;;19.20;99.90;;;;;;5318574;26;20001;-86
2024/04/17 07:21:31;;;;;;;26.08;19.48;;;19.30;99.90;;;;;;5317718;26;20438;-86
2024/04/17 07:23:58;;;;;;;24.55;19.20;;;19.30;99.90;;;;;;5318272;26;20008;-90
2024/04/17 07:26:24;;;;;;;23.83;19.40;;;19.70;99.90;;;;;;5319112;26;20001;-92
2024/04/17 07:28:51;;;;;;;22.67;19.48;;;20.20;99.90;;;;;;5347587;26;20009;-90
2024/04/17 07:31:17;;;;;;;27.67;19.65;;;20.70;99.90;;;;;;5347951;26;20008;-90
2024/04/17 07:33:47;;;;;;;20.30;18.13;;;21.20;99.90;;;;;;5374925;26;20020;-90
2024/04/17 07:36:14;;;;;;;28.38;23.83;;;21.70;99.90;;;;;;5318667;26;20001;-88
2024/04/17 07:38:42;;;;;;;28.67;25.90;;;22.50;99.90;;;;;;5376446;26;20013;-88
2024/04/17 07:41:08;;;;;;;29.33;26.15;;;22.70;99.90;;;;;;5318543;26;20032;-92
2024/04/17 07:43:35;;;;;;;29.60;26.58;;;23.10;99.90;;;;;;5347497;26;20008;-88
2024/04/17 07:46:02;;;;;;;32.88;27.50;;;23.40;99.90;;;;;;5353084;26;20036;-90
2024/04/17 07:48:30;;;;;;;30.98;27.95;;;23.50;99.90;;;;;;5353456;26;20081;-88
2024/04/17 07:50:56;;;;;;;31.65;27.88;;;23.60;99.90;;;;;;5352382;26;20461;-86
2024/04/17 07:53:23;;;;;;;31.20;28.30;;;23.50;99.90;;;;;;5345991;26;19997;-88
2024/04/17 07:55:49;;;;;;;34.05;28.25;;;23.50;99.90;;;;;;5346172;26;20005;-86
2024/04/17 07:58:16;;;;;;;30.98;27.90;;;23.60;99.90;;;;;;5347765;26;20036;-87
2024/04/17 08:00:42;;;;;;;31.02;27.95;;;23.60;99.90;;;;;;5317148;26;20439;-87
2024/04/17 08:03:12;;;;;;;31.58;28.70;;;23.90;99.90;;;;;;5317350;26;20446;-88
2024/04/17 08:05:39;;;;;;;36.25;28.88;;;24.30;99.90;;;;;;5366675;26;20012;-84
2024/04/17 08:08:06;;;;;;;32.03;28.38;;;24.30;99.90;;;;;;5315992;26;20013;-85
2024/04/17 08:10:32;;;;;;;32.08;28.88;;;24.40;99.90;;;;;;5345444;26;20469;-84
2024/04/17 08:13:33;;;;;;;32.30;29.13;;;23.80;99.90;;;;;;5316186;26;20438;-83
2024/04/17 08:15:54;;;;;;;32.47;28.85;;;23.50;99.90;;;;;;5347628;26;20012;-84
2024/04/17 08:18:21;;;;;;;34.38;29.17;;;23.20;99.90;;;;;;5344483;26;20449;-84
2024/04/17 08:20:57;;;;;;;33.22;29.15;;;23.40;99.90;;;;;;5363997;26;19999;-84
2024/04/17 08:23:25;;;;;;;35.53;30.35;;;23.70;99.90;;;;;;5385038;26;20004;-84
2024/04/17 08:25:52;;;;;;;38.05;30.10;;;23.30;99.90;;;;;;5415660;26;20030;-84
2024/04/17 08:28:21;;;;;;;33.17;29.63;;;23.40;99.90;;;;;;5367993;26;20361;-83
2024/04/17 08:30:50;;;;;;;33.53;29.73;;;23.80;99.90;;;;;;5378368;26;20007;-84
2024/04/17 08:33:17;;;;;;;33.10;29.85;;;24.00;99.90;;;;;;5388620;26;20235;-84
2024/04/17 08:35:43;;;;;;;34.15;30.70;;;24.10;99.90;;;;;;5418175;26;20417;-83
2024/04/17 08:38:13;;;;;;;33.00;29.63;;;23.90;99.90;;;;;;5418087;26;20014;-83
2024/04/17 08:40:40;;;;;;;32.28;29.08;;;24.00;99.90;;;;;;5399529;26;20003;-83
2024/04/17 08:43:09;;;;;;;33.10;29.65;;;23.80;99.90;;;;;;5388471;26;20053;-84
2024/04/17 08:45:36;;;;;;;32.88;29.63;;;23.90;99.90;;;;;;5360297;26;20012;-84
2024/04/17 08:48:07;;;;;;;33.03;29.80;;;23.80;99.90;;;;;;5356601;26;20327;-83
2024/04/17 08:50:35;;;;;;;30.83;28.23;;;23.80;99.90;;;;;;5373569;26;20008;-83
2024/04/17 08:53:06;;;;;;;32.30;29.05;;;24.00;99.90;;;;;;5417806;26;20014;-84
2024/04/17 08:55:33;;;;;;;30.83;28.10;;;24.40;99.90;;;;;;5352746;26;20001;-84
2024/04/17 08:58:00;;;;;;;31.35;28.35;;;24.70;99.90;;;;;;5333995;26;20040;-83
2024/04/17 09:00:28;;;;;;;31.88;28.75;;;24.50;99.90;;;;;;5400817;26;20008;-84
2024/04/17 09:02:59;;;;;;;31.80;28.27;;;24.40;99.90;;;;;;5351023;26;20012;-83
2024/04/17 09:05:29;;;;;;;31.73;28.83;;;24.70;99.90;;;;;;5318310;26;20012;-84
2024/04/17 09:07:59;;;;;;;31.90;29.20;;;24.90;99.90;;;;;;5348256;26;20005;-84
2024/04/17 09:10:26;;;;;;;33.75;30.67;;;24.60;99.90;;;;;;5392098;26;20015;-83
2024/04/17 09:12:54;;;;;;;31.75;28.73;;;23.50;99.90;;;;;;5359544;26;20014;-83
2024/04/17 09:15:21;;;;;;;30.55;27.23;;;22.40;99.90;;;;;;5352975;26;20004;-83
2024/04/17 09:17:48;;;;;;;32.65;25.77;;;21.70;99.90;;;;;;5353184;26;20000;-83
2024/04/17 09:20:15;;;;;;;30.02;26.10;;;21.20;99.90;;;;;;5366997;26;20015;-82
2024/04/17 09:22:42;;;;;;;31.77;26.00;;;21.30;99.90;;;;;;5388024;26;20004;-84
2024/04/17 09:25:16;;;;;;;29.45;25.27;;;21.10;99.90;;;;;;5387937;26;20003;-84
2024/04/17 09:27:46;;;;;;;27.88;23.77;;;20.90;99.90;;;;;;5417545;26;20000;-83
2024/04/17 09:30:15;;;;;;;25.33;22.92;;;20.20;99.90;;;;;;5381636;26;19999;-84
2024/04/17 09:32:47;;;;;;;26.13;23.52;;;20.00;99.90;;;;;;5388043;26;20003;-85
2024/04/17 09:35:14;;;;;;;26.85;24.40;;;20.10;99.90;;;;;;5417631;26;20011;-84
2024/04/17 09:37:41;;;;;;;26.65;24.13;;;20.60;99.90;;;;;;5386888;26;20015;-89
2024/04/17 09:40:11;;;;;;;26.85;24.02;;;20.60;99.90;;;;;;5400790;26;20011;-84
2024/04/17 09:42:41;;;;;;;27.08;24.98;;;20.60;99.90;;;;;;5352905;26;20005;-83
2024/04/17 09:45:13;;;;;;;28.15;25.35;;;21.20;99.90;;;;;;5352523;26;20356;-82
2024/04/17 09:47:45;;;;;;;27.80;25.02;;;21.30;99.90;;;;;;5354752;26;20011;-81
2024/04/17 09:50:17;;;;;;;26.10;23.70;;;21.40;99.90;;;;;;5344104;26;19995;-85
2024/04/17 09:52:52;;;;;;;26.92;24.42;;;20.70;99.90;;;;;;5373650;26;20027;-82
2024/04/17 09:55:22;;;;;;;26.45;23.98;;;20.70;99.90;;;;;;5352300;26;20357;-82
2024/04/17 09:57:50;;;;;;;27.60;24.65;;;20.30;99.90;;;;;;5383364;26;20017;-88
2024/04/17 10:00:17;;;;;;;27.70;25.00;;;20.50;99.90;;;;;;5354184;26;20000;-88
2024/04/17 10:02:45;;;;;;;28.15;25.70;;;20.30;99.90;;;;;;5347662;26;20013;-85
2024/04/17 10:05:16;;;;;;;29.10;26.50;;;20.10;99.90;;;;;;5318876;26;20005;-85
2024/04/17 10:07:47;;;;;;;28.80;26.00;;;20.10;99.90;;;;;;5347712;26;20427;-85
2024/04/17 10:10:19;;;;;;;28.83;26.30;;;20.10;99.90;;;;;;5376827;26;19999;-85
2024/04/17 10:12:49;;;;;;;29.65;26.98;;;20.20;99.90;;;;;;5419668;26;20011;-85
2024/04/17 10:15:17;;;;;;;29.67;27.20;;;20.50;99.90;;;;;;5363998;26;20000;-85
2024/04/17 10:17:44;;;;;;;29.95;27.55;;;21.10;99.90;;;;;;5347794;26;20099;-83
2024/04/17 10:20:28;;;;;;;30.63;27.73;;;21.20;99.90;;;;;;5349457;26;20528;-88
2024/04/17 10:23:03;;;;;;;29.83;27.17;;;21.20;99.90;;;;;;5348635;26;20004;-88
2024/04/17 10:25:31;;;;;;;31.20;28.33;;;21.50;99.90;;;;;;5348170;26;20239;-87
2024/04/17 10:28:10;;;;;;;31.83;29.02;;;22.00;99.90;;;;;;5318360;26;20041;-83
2024/04/17 10:30:40;;;;;;;31.92;28.85;;;22.10;99.90;;;;;;5382732;26;20018;-84
2024/04/17 10:33:18;;;;;;;31.90;28.70;;;22.20;99.90;;;;;;5419040;26;20228;-90
2024/04/17 10:35:49;;;;;;;31.52;28.65;;;22.00;99.90;;;;;;5419496;26;20015;-84
2024/04/17 10:38:16;;;;;;;32.13;29.58;;;22.20;99.90;;;;;;5417940;26;20430;-86
2024/04/17 10:40:45;;;;;;;31.73;28.98;;;22.50;99.90;;;;;;5398758;26;20085;-84
2024/04/17 10:43:13;;;;;;;31.17;28.52;;;22.70;99.90;;;;;;5382904;26;20073;-84
2024/04/17 10:45:45;;;;;;;32.17;29.38;;;22.40;99.90;;;;;;5361086;26;20000;-84
2024/04/17 10:48:16;;;;;;;33.53;29.92;;;22.50;99.90;;;;;;5347733;26;20451;-85
2024/04/17 10:50:43;;;;;;;33.20;30.08;;;22.80;99.90;;;;;;5383856;26;20030;-85
2024/04/17 10:53:11;;;;;;;31.95;29.30;;;22.80;99.90;;;;;;5416564;26;20004;-84
2024/04/17 10:55:38;;;;;;;32.00;29.23;;;23.10;99.90;;;;;;5416132;26;20010;-85
2024/04/17 10:58:05;;;;;;;30.77;28.27;;;23.10;99.90;;;;;;5404771;26;20496;-84
2024/04/17 11:00:31;;;;;;;31.02;28.73;;;22.90;99.90;;;;;;5351537;26;20000;-85
2024/04/17 11:02:58;;;;;;;31.95;28.50;;;22.70;99.90;;;;;;5379529;26;20460;-83
2024/04/17 11:05:25;;;;;;;32.25;29.05;;;22.60;99.90;;;;;;5346406;26;20032;-84
2024/04/17 11:07:55;;;;;;;31.75;28.88;;;22.50;99.90;;;;;;5346056;26;20032;-84
2024/04/17 11:10:22;;;;;;;31.80;29.20;;;22.80;99.90;;;;;;5345698;26;20009;-83
2024/04/17 11:12:48;;;;;;;32.53;29.35;;;23.00;99.90;;;;;;5345745;26;20081;-84
2024/04/17 11:15:15;;;;;;;32.17;29.02;;;23.30;99.90;;;;;;5316696;26;20033;-85
2024/04/17 11:17:42;;;;;;;32.90;30.00;;;23.60;99.90;;;;;;5336617;26;20015;-84
2024/04/17 11:20:10;;;;;;;33.92;30.70;;;23.80;99.90;;;;;;5360726;26;20019;-84
2024/04/17 11:22:43;;;;;;;32.13;29.10;;;23.50;99.90;;;;;;5386584;26;20438;-84
2024/04/17 11:25:14;;;;;;;33.05;29.70;;;23.20;99.90;;;;;;5415414;26;20004;-84
2024/04/17 11:27:44;;;;;;;32.17;29.23;;;23.10;99.90;;;;;;5386102;26;19999;-84
2024/04/17 11:30:17;;;;;;;32.40;29.60;;;23.10;99.90;;;;;;5375660;26;20400;-83
2024/04/17 11:32:44;;;;;;;32.63;29.53;;;23.00;99.90;;;;;;5351114;26;20019;-81
2024/04/17 11:35:16;;;;;;;32.50;29.50;;;22.90;99.90;;;;;;5351231;26;20334;-85
2024/04/17 11:37:47;;;;;;;32.30;29.33;;;22.70;99.90;;;;;;5345711;26;20005;-86
2024/04/17 11:40:15;;;;;;;33.35;30.42;;;23.10;99.90;;;;;;5317267;26;20001;-85
2024/04/17 11:42:42;;;;;;;34.42;30.95;;;23.00;99.90;;;;;;5316402;26;20005;-83
2024/04/17 11:45:13;;;;;;;33.92;30.63;;;22.90;99.90;;;;;;5316175;26;20015;-82
2024/04/17 11:47:42;;;;;;;33.83;31.08;;;23.20;99.90;;;;;;5316294;26;20001;-81
2024/04/17 11:50:11;;;;;;;33.45;30.67;;;23.30;99.90;;;;;;5316207;26;20005;-85
2024/04/17 11:52:37;;;;;;;33.42;30.52;;;23.00;99.90;;;;;;5350568;26;20017;-85
2024/04/17 11:55:04;;;;;;;34.03;31.00;;;23.00;99.90;;;;;;5345325;26;20008;-86
2024/04/17 11:57:31;;;;;;;34.35;31.17;;;23.10;99.90;;;;;;5345065;26;20001;-85
2024/04/17 11:59:57;;;;;;;33.47;30.42;;;23.30;99.90;;;;;;5357113;26;20045;-84
2024/04/17 12:02:24;;;;;;;33.42;30.48;;;23.40;99.90;;;;;;5418079;26;20049;-83
2024/04/17 12:04:54;;;;;;;32.05;29.48;;;23.30;99.90;;;;;;5388781;26;20000;-84
2024/04/17 12:07:20;;;;;;;32.85;30.10;;;23.20;99.90;;;;;;5388635;26;20011;-84
2024/04/17 12:09:48;;;;;;;33.47;30.30;;;23.10;99.90;;;;;;5385284;26;20468;-83
2024/04/17 12:12:18;;;;;;;33.90;30.40;;;23.20;99.90;;;;;;5371905;26;20001;-85
2024/04/17 12:14:47;;;;;;;32.95;29.85;;;23.10;99.90;;;;;;5341190;26;20001;-84
2024/04/17 12:17:14;;;;;;;32.72;29.77;;;23.10;99.90;;;;;;5325984;26;20466;-82
2024/04/17 12:19:41;;;;;;;33.83;30.13;;;23.40;99.90;;;;;;5350167;26;20009;-82
2024/04/17 12:22:08;;;;;;;32.95;30.20;;;23.20;99.90;;;;;;5388414;26;20353;-82
2024/04/17 12:27:20;;;;;;;33.97;30.40;;;23.20;99.90;;;;;;5383445;26;20361;-85
2024/04/17 12:29:46;;;;;;;33.38;30.27;;;24.00;99.90;;;;;;5399638;26;20047;-85
2024/04/17 12:32:16;;;;;;;32.85;30.05;;;23.90;99.90;;;;;;5390171;26;20031;-86